Disclaimer

Please do not use the information listed here in-flight or in-navigation, as they are not provided to us by the airports but are provided by volunteers, so they might be outdated.

Search


Regions


Airport information page

Radio informations:
Melbourne Center - 119.5 MHz
Common traffic adv. frequency (CTAF) - 118.2 MHz

Airport informations:
Latitude: 35° 09' 55.00" S
Longitude: 147° 27' 59.00" E
Elevation: 724 feet - 221 meters
Operating hours: 24 hour operations
Operating agency: Civil government, landing fees and diplomatic clearance may be required
Timezone: UTC+10(+11DT)
Fuel: Jet A1, without icing nhibitor.

100/130 MIL Spec, low lead, aviation gasoline (BLUE)

Runway information:
05/23 - 5801 x 148 feet< - >1768 x 45 meters
12/30 - 5007 x 98 feet< - >1526 x 30 meters

Recent METARs:
YSWG 181500Z AUTO 06008KT 9999 // NCD 22/16 Q1011
YSWG 181600Z AUTO 05008KT 9999 // NCD 21/15 Q1011
YSWG 181600Z AUTO 05008KT 9999 // NCD 21/15 Q1011

Airport on the map: